sensor_id;sensor_type;location;lat;lon;timestamp;P1;durP1;ratioP1;P2;durP2;ratioP2
6791;SDS011;3433;48.730;9.108;2022-12-18T00:00:15;57.73;;;18.77;;
6791;SDS011;3433;48.730;9.108;2022-12-18T00:03:02;63.43;;;19.10;;
6791;SDS011;3433;48.730;9.108;2022-12-18T00:05:50;56.10;;;17.87;;
6791;SDS011;3433;48.730;9.108;2022-12-18T00:08:39;56.83;;;19.07;;
6791;SDS011;3433;48.730;9.108;2022-12-18T00:11:28;40.50;;;15.30;;
6791;SDS011;3433;48.730;9.108;2022-12-18T00:14:16;46.73;;;17.10;;
6791;SDS011;3433;48.730;9.108;2022-12-18T00:17:03;40.23;;;16.30;;
6791;SDS011;3433;48.730;9.108;2022-12-18T00:19:50;39.17;;;13.80;;
6791;SDS011;3433;48.730;9.108;2022-12-18T00:22:38;39.70;;;14.80;;
6791;SDS011;3433;48.730;9.108;2022-12-18T00:25:26;35.53;;;14.93;;
6791;SDS011;3433;48.730;9.108;2022-12-18T00:28:13;56.30;;;16.27;;
6791;SDS011;3433;48.730;9.108;2022-12-18T00:31:01;48.87;;;14.90;;
6791;SDS011;3433;48.730;9.108;2022-12-18T00:33:48;36.80;;;15.03;;
6791;SDS011;3433;48.730;9.108;2022-12-18T00:36:36;39.30;;;15.10;;
6791;SDS011;3433;48.730;9.108;2022-12-18T00:39:23;37.73;;;14.40;;
6791;SDS011;3433;48.730;9.108;2022-12-18T00:42:11;40.90;;;15.03;;
6791;SDS011;3433;48.730;9.108;2022-12-18T00:45:16;36.10;;;16.17;;
6791;SDS011;3433;48.730;9.108;2022-12-18T00:48:04;33.77;;;14.80;;
6791;SDS011;3433;48.730;9.108;2022-12-18T00:50:51;36.17;;;14.70;;
6791;SDS011;3433;48.730;9.108;2022-12-18T00:53:38;34.73;;;12.97;;
6791;SDS011;3433;48.730;9.108;2022-12-18T00:56:26;34.73;;;15.30;;
6791;SDS011;3433;48.730;9.108;2022-12-18T00:59:15;40.67;;;15.13;;
6791;SDS011;3433;48.730;9.108;2022-12-18T01:02:02;37.73;;;14.10;;
6791;SDS011;3433;48.730;9.108;2022-12-18T01:04:49;41.43;;;15.93;;
6791;SDS011;3433;48.730;9.108;2022-12-18T01:07:37;39.57;;;16.10;;
6791;SDS011;3433;48.730;9.108;2022-12-18T01:10:24;31.93;;;12.17;;
6791;SDS011;3433;48.730;9.108;2022-12-18T01:13:12;35.40;;;14.00;;
6791;SDS011;3433;48.730;9.108;2022-12-18T01:16:01;42.50;;;15.03;;
6791;SDS011;3433;48.730;9.108;2022-12-18T01:18:50;29.17;;;12.10;;
6791;SDS011;3433;48.730;9.108;2022-12-18T01:21:39;31.93;;;13.87;;
6791;SDS011;3433;48.730;9.108;2022-12-18T01:24:26;32.57;;;13.47;;
6791;SDS011;3433;48.730;9.108;2022-12-18T01:27:13;34.30;;;13.93;;
6791;SDS011;3433;48.730;9.108;2022-12-18T01:30:01;39.57;;;15.30;;
6791;SDS011;3433;48.730;9.108;2022-12-18T01:32:50;47.53;;;16.20;;
6791;SDS011;3433;48.730;9.108;2022-12-18T01:35:39;34.60;;;14.50;;
6791;SDS011;3433;48.730;9.108;2022-12-18T01:38:28;40.07;;;15.47;;
6791;SDS011;3433;48.730;9.108;2022-12-18T01:41:16;43.37;;;16.30;;
6791;SDS011;3433;48.730;9.108;2022-12-18T01:47:26;40.87;;;16.70;;
6791;SDS011;3433;48.730;9.108;2022-12-18T01:50:21;39.97;;;15.70;;
6791;SDS011;3433;48.730;9.108;2022-12-18T01:53:11;40.53;;;16.73;;
6791;SDS011;3433;48.730;9.108;2022-12-18T01:56:01;35.97;;;14.97;;
6791;SDS011;3433;48.730;9.108;2022-12-18T01:58:51;38.00;;;16.90;;
6791;SDS011;3433;48.730;9.108;2022-12-18T02:01:41;54.73;;;16.93;;
6791;SDS011;3433;48.730;9.108;2022-12-18T02:04:28;43.83;;;17.60;;
6791;SDS011;3433;48.730;9.108;2022-12-18T02:07:20;46.63;;;19.20;;
6791;SDS011;3433;48.730;9.108;2022-12-18T02:10:13;40.40;;;15.17;;
6791;SDS011;3433;48.730;9.108;2022-12-18T02:13:07;40.00;;;17.60;;
6791;SDS011;3433;48.730;9.108;2022-12-18T02:16:00;45.10;;;17.83;;
6791;SDS011;3433;48.730;9.108;2022-12-18T02:18:55;48.13;;;17.83;;
6791;SDS011;3433;48.730;9.108;2022-12-18T02:21:45;48.03;;;17.50;;
6791;SDS011;3433;48.730;9.108;2022-12-18T02:24:45;42.23;;;18.50;;
6791;SDS011;3433;48.730;9.108;2022-12-18T02:27:45;49.40;;;18.77;;
6791;SDS011;3433;48.730;9.108;2022-12-18T02:30:33;51.17;;;18.70;;
6791;SDS011;3433;48.730;9.108;2022-12-18T02:33:22;46.67;;;19.33;;
6791;SDS011;3433;48.730;9.108;2022-12-18T02:36:11;43.23;;;18.80;;
6791;SDS011;3433;48.730;9.108;2022-12-18T02:39:01;52.90;;;19.37;;
6791;SDS011;3433;48.730;9.108;2022-12-18T02:41:50;44.90;;;17.87;;
6791;SDS011;3433;48.730;9.108;2022-12-18T02:44:43;47.57;;;20.43;;
6791;SDS011;3433;48.730;9.108;2022-12-18T02:47:32;51.43;;;17.60;;
6791;SDS011;3433;48.730;9.108;2022-12-18T02:50:24;38.60;;;17.10;;
6791;SDS011;3433;48.730;9.108;2022-12-18T02:53:17;47.57;;;15.43;;
6791;SDS011;3433;48.730;9.108;2022-12-18T02:56:11;36.30;;;15.00;;
6791;SDS011;3433;48.730;9.108;2022-12-18T02:59:04;39.40;;;17.47;;
6791;SDS011;3433;48.730;9.108;2022-12-18T03:01:57;45.77;;;18.60;;
6791;SDS011;3433;48.730;9.108;2022-12-18T03:04:49;45.07;;;17.40;;
6791;SDS011;3433;48.730;9.108;2022-12-18T03:07:43;33.97;;;16.47;;
6791;SDS011;3433;48.730;9.108;2022-12-18T03:10:41;35.37;;;15.50;;
6791;SDS011;3433;48.730;9.108;2022-12-18T03:13:31;33.60;;;16.97;;
6791;SDS011;3433;48.730;9.108;2022-12-18T03:16:23;37.40;;;15.90;;
6791;SDS011;3433;48.730;9.108;2022-12-18T03:19:15;36.60;;;14.33;;
6791;SDS011;3433;48.730;9.108;2022-12-18T03:22:05;29.53;;;13.50;;
6791;SDS011;3433;48.730;9.108;2022-12-18T03:24:54;47.23;;;16.27;;
6791;SDS011;3433;48.730;9.108;2022-12-18T03:27:44;40.03;;;17.70;;
6791;SDS011;3433;48.730;9.108;2022-12-18T03:30:35;38.10;;;15.77;;
6791;SDS011;3433;48.730;9.108;2022-12-18T03:33:27;39.93;;;16.63;;
6791;SDS011;3433;48.730;9.108;2022-12-18T03:36:20;31.30;;;15.23;;
6791;SDS011;3433;48.730;9.108;2022-12-18T03:39:07;37.80;;;14.67;;
6791;SDS011;3433;48.730;9.108;2022-12-18T03:41:55;43.53;;;16.63;;
6791;SDS011;3433;48.730;9.108;2022-12-18T03:44:49;30.93;;;15.53;;
6791;SDS011;3433;48.730;9.108;2022-12-18T03:47:44;37.33;;;16.40;;
6791;SDS011;3433;48.730;9.108;2022-12-18T03:50:45;29.50;;;14.33;;
6791;SDS011;3433;48.730;9.108;2022-12-18T03:53:39;35.67;;;15.40;;
6791;SDS011;3433;48.730;9.108;2022-12-18T03:56:33;34.80;;;16.47;;
6791;SDS011;3433;48.730;9.108;2022-12-18T03:59:24;32.00;;;14.60;;
6791;SDS011;3433;48.730;9.108;2022-12-18T04:02:13;38.13;;;13.73;;
6791;SDS011;3433;48.730;9.108;2022-12-18T04:05:03;35.83;;;15.33;;
6791;SDS011;3433;48.730;9.108;2022-12-18T04:07:53;29.50;;;14.60;;
6791;SDS011;3433;48.730;9.108;2022-12-18T04:10:42;30.53;;;13.40;;
6791;SDS011;3433;48.730;9.108;2022-12-18T04:13:31;36.27;;;13.50;;
6791;SDS011;3433;48.730;9.108;2022-12-18T04:16:20;29.53;;;13.60;;
6791;SDS011;3433;48.730;9.108;2022-12-18T04:19:07;26.80;;;12.40;;
6791;SDS011;3433;48.730;9.108;2022-12-18T04:21:54;30.40;;;13.43;;
6791;SDS011;3433;48.730;9.108;2022-12-18T04:24:42;27.33;;;13.37;;
6791;SDS011;3433;48.730;9.108;2022-12-18T04:27:30;30.20;;;12.30;;
6791;SDS011;3433;48.730;9.108;2022-12-18T04:30:17;32.03;;;13.17;;
6791;SDS011;3433;48.730;9.108;2022-12-18T04:33:07;30.03;;;14.63;;
6791;SDS011;3433;48.730;9.108;2022-12-18T04:35:55;29.37;;;14.63;;
6791;SDS011;3433;48.730;9.108;2022-12-18T04:38:42;32.90;;;14.60;;
6791;SDS011;3433;48.730;9.108;2022-12-18T04:41:29;33.67;;;16.60;;
6791;SDS011;3433;48.730;9.108;2022-12-18T04:44:18;30.40;;;12.97;;
6791;SDS011;3433;48.730;9.108;2022-12-18T04:47:05;31.87;;;15.57;;
6791;SDS011;3433;48.730;9.108;2022-12-18T04:49:52;38.97;;;14.80;;
6791;SDS011;3433;48.730;9.108;2022-12-18T04:52:40;31.87;;;15.63;;
6791;SDS011;3433;48.730;9.108;2022-12-18T04:55:27;26.80;;;13.20;;
6791;SDS011;3433;48.730;9.108;2022-12-18T04:58:14;32.13;;;14.53;;
6791;SDS011;3433;48.730;9.108;2022-12-18T05:01:03;28.93;;;14.90;;
6791;SDS011;3433;48.730;9.108;2022-12-18T05:03:50;35.60;;;14.10;;
6791;SDS011;3433;48.730;9.108;2022-12-18T05:06:38;27.63;;;12.73;;
6791;SDS011;3433;48.730;9.108;2022-12-18T05:09:25;35.83;;;14.10;;
6791;SDS011;3433;48.730;9.108;2022-12-18T05:12:12;32.40;;;13.20;;
6791;SDS011;3433;48.730;9.108;2022-12-18T05:14:59;32.30;;;13.53;;
6791;SDS011;3433;48.730;9.108;2022-12-18T05:17:48;35.93;;;12.80;;
6791;SDS011;3433;48.730;9.108;2022-12-18T05:20:35;27.73;;;13.60;;
6791;SDS011;3433;48.730;9.108;2022-12-18T05:23:22;37.40;;;12.23;;
6791;SDS011;3433;48.730;9.108;2022-12-18T05:26:11;30.40;;;13.53;;
6791;SDS011;3433;48.730;9.108;2022-12-18T05:29:02;25.13;;;11.63;;
6791;SDS011;3433;48.730;9.108;2022-12-18T05:31:49;30.20;;;12.27;;
6791;SDS011;3433;48.730;9.108;2022-12-18T05:34:37;41.90;;;13.57;;
6791;SDS011;3433;48.730;9.108;2022-12-18T05:37:25;33.57;;;13.60;;
6791;SDS011;3433;48.730;9.108;2022-12-18T05:40:12;30.10;;;12.50;;
6791;SDS011;3433;48.730;9.108;2022-12-18T05:42:59;27.33;;;11.30;;
6791;SDS011;3433;48.730;9.108;2022-12-18T05:45:47;24.77;;;11.83;;
6791;SDS011;3433;48.730;9.108;2022-12-18T05:48:35;33.77;;;12.73;;
6791;SDS011;3433;48.730;9.108;2022-12-18T05:51:23;32.33;;;12.57;;
6791;SDS011;3433;48.730;9.108;2022-12-18T05:54:10;35.27;;;14.40;;
6791;SDS011;3433;48.730;9.108;2022-12-18T05:56:58;36.97;;;13.07;;
6791;SDS011;3433;48.730;9.108;2022-12-18T05:59:45;24.93;;;12.17;;
6791;SDS011;3433;48.730;9.108;2022-12-18T06:02:32;26.80;;;13.90;;
6791;SDS011;3433;48.730;9.108;2022-12-18T06:05:19;29.50;;;12.90;;
6791;SDS011;3433;48.730;9.108;2022-12-18T06:08:08;31.40;;;12.63;;
6791;SDS011;3433;48.730;9.108;2022-12-18T06:10:56;35.10;;;13.40;;
6791;SDS011;3433;48.730;9.108;2022-12-18T06:13:44;36.20;;;15.10;;
6791;SDS011;3433;48.730;9.108;2022-12-18T06:16:31;35.33;;;15.60;;
6791;SDS011;3433;48.730;9.108;2022-12-18T06:19:19;36.00;;;14.03;;
6791;SDS011;3433;48.730;9.108;2022-12-18T06:22:06;42.83;;;17.60;;
6791;SDS011;3433;48.730;9.108;2022-12-18T06:24:54;39.40;;;13.50;;
6791;SDS011;3433;48.730;9.108;2022-12-18T06:27:42;32.80;;;12.50;;
6791;SDS011;3433;48.730;9.108;2022-12-18T06:30:29;28.97;;;13.27;;
6791;SDS011;3433;48.730;9.108;2022-12-18T06:33:16;30.20;;;13.77;;
6791;SDS011;3433;48.730;9.108;2022-12-18T06:36:05;29.73;;;14.40;;
6791;SDS011;3433;48.730;9.108;2022-12-18T06:38:54;27.20;;;12.53;;
6791;SDS011;3433;48.730;9.108;2022-12-18T06:41:43;32.57;;;13.07;;
6791;SDS011;3433;48.730;9.108;2022-12-18T06:44:31;38.67;;;13.67;;
6791;SDS011;3433;48.730;9.108;2022-12-18T06:47:18;34.50;;;14.43;;
6791;SDS011;3433;48.730;9.108;2022-12-18T06:50:06;35.00;;;14.30;;
6791;SDS011;3433;48.730;9.108;2022-12-18T06:52:53;24.70;;;11.97;;
6791;SDS011;3433;48.730;9.108;2022-12-18T06:55:41;28.23;;;11.63;;
6791;SDS011;3433;48.730;9.108;2022-12-18T06:58:29;29.50;;;13.47;;
6791;SDS011;3433;48.730;9.108;2022-12-18T07:01:16;37.03;;;13.33;;
6791;SDS011;3433;48.730;9.108;2022-12-18T07:04:04;27.27;;;12.00;;
6791;SDS011;3433;48.730;9.108;2022-12-18T07:06:51;32.07;;;13.10;;
6791;SDS011;3433;48.730;9.108;2022-12-18T07:09:38;26.40;;;12.07;;
6791;SDS011;3433;48.730;9.108;2022-12-18T07:12:26;35.83;;;13.80;;
6791;SDS011;3433;48.730;9.108;2022-12-18T07:15:14;28.37;;;12.37;;
6791;SDS011;3433;48.730;9.108;2022-12-18T07:18:02;26.67;;;12.30;;
6791;SDS011;3433;48.730;9.108;2022-12-18T07:20:49;33.40;;;14.10;;
6791;SDS011;3433;48.730;9.108;2022-12-18T07:23:37;27.57;;;12.50;;
6791;SDS011;3433;48.730;9.108;2022-12-18T07:26:24;31.73;;;14.33;;
6791;SDS011;3433;48.730;9.108;2022-12-18T07:29:11;33.83;;;13.03;;
6791;SDS011;3433;48.730;9.108;2022-12-18T07:32:00;24.87;;;11.80;;
6791;SDS011;3433;48.730;9.108;2022-12-18T07:34:48;36.10;;;13.63;;
6791;SDS011;3433;48.730;9.108;2022-12-18T07:37:35;34.07;;;13.70;;
6791;SDS011;3433;48.730;9.108;2022-12-18T07:40:22;35.73;;;14.80;;
6791;SDS011;3433;48.730;9.108;2022-12-18T07:43:09;42.10;;;14.50;;
6791;SDS011;3433;48.730;9.108;2022-12-18T07:45:56;34.83;;;13.30;;
6791;SDS011;3433;48.730;9.108;2022-12-18T07:48:45;39.50;;;15.13;;
6791;SDS011;3433;48.730;9.108;2022-12-18T07:51:32;38.27;;;13.63;;
6791;SDS011;3433;48.730;9.108;2022-12-18T07:54:19;30.27;;;14.10;;
6791;SDS011;3433;48.730;9.108;2022-12-18T07:57:08;40.97;;;14.63;;
6791;SDS011;3433;48.730;9.108;2022-12-18T07:59:55;34.27;;;14.07;;
6791;SDS011;3433;48.730;9.108;2022-12-18T08:02:42;33.50;;;14.07;;
6791;SDS011;3433;48.730;9.108;2022-12-18T08:05:31;37.67;;;15.37;;
6791;SDS011;3433;48.730;9.108;2022-12-18T08:08:18;40.00;;;14.67;;
6791;SDS011;3433;48.730;9.108;2022-12-18T08:11:05;37.67;;;14.60;;
6791;SDS011;3433;48.730;9.108;2022-12-18T08:13:53;34.13;;;14.07;;
6791;SDS011;3433;48.730;9.108;2022-12-18T08:16:40;36.27;;;15.77;;
6791;SDS011;3433;48.730;9.108;2022-12-18T08:19:28;42.20;;;16.93;;
6791;SDS011;3433;48.730;9.108;2022-12-18T08:22:16;36.03;;;14.53;;
6791;SDS011;3433;48.730;9.108;2022-12-18T08:25:04;34.70;;;13.90;;
6791;SDS011;3433;48.730;9.108;2022-12-18T08:27:52;28.33;;;13.30;;
6791;SDS011;3433;48.730;9.108;2022-12-18T08:30:40;35.00;;;14.17;;
6791;SDS011;3433;48.730;9.108;2022-12-18T08:33:27;36.27;;;15.60;;
6791;SDS011;3433;48.730;9.108;2022-12-18T08:36:15;36.43;;;16.33;;
6791;SDS011;3433;48.730;9.108;2022-12-18T08:39:04;39.23;;;14.43;;
6791;SDS011;3433;48.730;9.108;2022-12-18T08:41:51;33.60;;;14.93;;
6791;SDS011;3433;48.730;9.108;2022-12-18T08:44:52;41.33;;;15.93;;
6791;SDS011;3433;48.730;9.108;2022-12-18T08:47:39;31.83;;;14.33;;
6791;SDS011;3433;48.730;9.108;2022-12-18T08:50:26;40.20;;;16.33;;
6791;SDS011;3433;48.730;9.108;2022-12-18T08:53:14;34.83;;;14.37;;
6791;SDS011;3433;48.730;9.108;2022-12-18T08:56:02;32.83;;;15.00;;
6791;SDS011;3433;48.730;9.108;2022-12-18T08:58:51;38.20;;;15.77;;
6791;SDS011;3433;48.730;9.108;2022-12-18T09:01:39;42.33;;;18.03;;
6791;SDS011;3433;48.730;9.108;2022-12-18T09:04:26;36.70;;;14.70;;
6791;SDS011;3433;48.730;9.108;2022-12-18T09:07:13;39.73;;;16.83;;
6791;SDS011;3433;48.730;9.108;2022-12-18T09:10:00;40.77;;;18.37;;
6791;SDS011;3433;48.730;9.108;2022-12-18T09:12:49;40.10;;;16.30;;
6791;SDS011;3433;48.730;9.108;2022-12-18T09:15:39;37.70;;;16.73;;
6791;SDS011;3433;48.730;9.108;2022-12-18T09:18:27;37.93;;;15.63;;
6791;SDS011;3433;48.730;9.108;2022-12-18T09:21:15;35.33;;;16.73;;
6791;SDS011;3433;48.730;9.108;2022-12-18T09:24:04;36.10;;;16.70;;
6791;SDS011;3433;48.730;9.108;2022-12-18T09:26:52;32.87;;;13.50;;
6791;SDS011;3433;48.730;9.108;2022-12-18T09:29:42;34.93;;;13.90;;
6791;SDS011;3433;48.730;9.108;2022-12-18T09:32:29;33.00;;;12.67;;
6791;SDS011;3433;48.730;9.108;2022-12-18T09:35:16;29.73;;;13.70;;
6791;SDS011;3433;48.730;9.108;2022-12-18T09:38:04;31.57;;;14.73;;
6791;SDS011;3433;48.730;9.108;2022-12-18T09:40:51;32.20;;;14.87;;
6791;SDS011;3433;48.730;9.108;2022-12-18T09:43:45;36.70;;;17.03;;
6791;SDS011;3433;48.730;9.108;2022-12-18T09:46:38;45.60;;;15.40;;
6791;SDS011;3433;48.730;9.108;2022-12-18T09:49:30;35.30;;;16.93;;
6791;SDS011;3433;48.730;9.108;2022-12-18T09:52:23;35.30;;;16.40;;
6791;SDS011;3433;48.730;9.108;2022-12-18T09:55:16;30.53;;;14.53;;
6791;SDS011;3433;48.730;9.108;2022-12-18T09:58:13;35.20;;;16.90;;
6791;SDS011;3433;48.730;9.108;2022-12-18T10:01:07;37.93;;;16.20;;
6791;SDS011;3433;48.730;9.108;2022-12-18T10:03:59;31.43;;;14.90;;
6791;SDS011;3433;48.730;9.108;2022-12-18T10:06:48;35.90;;;16.97;;
6791;SDS011;3433;48.730;9.108;2022-12-18T10:09:42;31.40;;;14.00;;
6791;SDS011;3433;48.730;9.108;2022-12-18T10:12:37;35.13;;;14.90;;
6791;SDS011;3433;48.730;9.108;2022-12-18T10:15:33;39.67;;;15.47;;
6791;SDS011;3433;48.730;9.108;2022-12-18T10:18:29;37.73;;;14.30;;
6791;SDS011;3433;48.730;9.108;2022-12-18T10:21:29;38.17;;;16.07;;
6791;SDS011;3433;48.730;9.108;2022-12-18T10:24:21;32.90;;;14.60;;
6791;SDS011;3433;48.730;9.108;2022-12-18T10:27:14;37.27;;;16.77;;
6791;SDS011;3433;48.730;9.108;2022-12-18T10:30:04;37.23;;;15.07;;
6791;SDS011;3433;48.730;9.108;2022-12-18T10:33:00;41.47;;;16.53;;
6791;SDS011;3433;48.730;9.108;2022-12-18T10:35:48;36.93;;;17.70;;
6791;SDS011;3433;48.730;9.108;2022-12-18T10:38:38;34.20;;;15.00;;
6791;SDS011;3433;48.730;9.108;2022-12-18T10:41:26;41.33;;;16.30;;
6791;SDS011;3433;48.730;9.108;2022-12-18T10:44:17;37.90;;;16.00;;
6791;SDS011;3433;48.730;9.108;2022-12-18T10:47:06;33.73;;;15.53;;
6791;SDS011;3433;48.730;9.108;2022-12-18T10:50:00;32.50;;;16.37;;
6791;SDS011;3433;48.730;9.108;2022-12-18T10:52:53;36.43;;;17.93;;
6791;SDS011;3433;48.730;9.108;2022-12-18T10:55:44;40.97;;;15.43;;
6791;SDS011;3433;48.730;9.108;2022-12-18T10:58:33;37.90;;;14.80;;
6791;SDS011;3433;48.730;9.108;2022-12-18T11:01:21;36.77;;;17.00;;
6791;SDS011;3433;48.730;9.108;2022-12-18T11:04:09;38.93;;;17.17;;
6791;SDS011;3433;48.730;9.108;2022-12-18T11:06:57;42.43;;;17.60;;
6791;SDS011;3433;48.730;9.108;2022-12-18T11:09:46;37.20;;;17.97;;
6791;SDS011;3433;48.730;9.108;2022-12-18T11:12:51;37.70;;;17.43;;
6791;SDS011;3433;48.730;9.108;2022-12-18T11:15:39;35.60;;;17.13;;
6791;SDS011;3433;48.730;9.108;2022-12-18T11:18:28;35.37;;;16.93;;
6791;SDS011;3433;48.730;9.108;2022-12-18T11:21:17;39.40;;;17.80;;
6791;SDS011;3433;48.730;9.108;2022-12-18T11:24:04;38.67;;;18.07;;
6791;SDS011;3433;48.730;9.108;2022-12-18T11:27:02;41.37;;;18.57;;
6791;SDS011;3433;48.730;9.108;2022-12-18T11:29:52;33.97;;;17.67;;
6791;SDS011;3433;48.730;9.108;2022-12-18T11:32:39;39.33;;;18.17;;
6791;SDS011;3433;48.730;9.108;2022-12-18T11:35:33;38.83;;;19.37;;
6791;SDS011;3433;48.730;9.108;2022-12-18T11:38:26;37.47;;;17.47;;
6791;SDS011;3433;48.730;9.108;2022-12-18T11:41:19;39.00;;;17.33;;
6791;SDS011;3433;48.730;9.108;2022-12-18T11:44:35;37.10;;;16.33;;
6791;SDS011;3433;48.730;9.108;2022-12-18T11:47:28;45.37;;;18.10;;
6791;SDS011;3433;48.730;9.108;2022-12-18T11:50:20;38.67;;;19.23;;
6791;SDS011;3433;48.730;9.108;2022-12-18T11:53:11;45.60;;;17.67;;
6791;SDS011;3433;48.730;9.108;2022-12-18T11:56:01;39.67;;;18.10;;
6791;SDS011;3433;48.730;9.108;2022-12-18T11:58:57;42.07;;;18.70;;
6791;SDS011;3433;48.730;9.108;2022-12-18T12:01:53;36.83;;;17.83;;
6791;SDS011;3433;48.730;9.108;2022-12-18T12:04:50;41.17;;;20.23;;
6791;SDS011;3433;48.730;9.108;2022-12-18T12:07:51;46.13;;;19.80;;
6791;SDS011;3433;48.730;9.108;2022-12-18T12:10:47;43.50;;;20.57;;
6791;SDS011;3433;48.730;9.108;2022-12-18T12:13:44;39.07;;;18.43;;
6791;SDS011;3433;48.730;9.108;2022-12-18T12:16:41;42.50;;;19.33;;
6791;SDS011;3433;48.730;9.108;2022-12-18T12:19:38;49.53;;;21.20;;
6791;SDS011;3433;48.730;9.108;2022-12-18T12:22:35;40.80;;;21.57;;
6791;SDS011;3433;48.730;9.108;2022-12-18T12:25:32;41.97;;;21.90;;
6791;SDS011;3433;48.730;9.108;2022-12-18T12:28:28;44.27;;;21.03;;
6791;SDS011;3433;48.730;9.108;2022-12-18T12:31:38;45.13;;;20.47;;
6791;SDS011;3433;48.730;9.108;2022-12-18T12:34:41;48.60;;;21.30;;
6791;SDS011;3433;48.730;9.108;2022-12-18T12:37:41;55.67;;;23.60;;
6791;SDS011;3433;48.730;9.108;2022-12-18T12:40:34;62.17;;;22.67;;
6791;SDS011;3433;48.730;9.108;2022-12-18T12:43:29;46.17;;;21.17;;
6791;SDS011;3433;48.730;9.108;2022-12-18T12:46:21;51.70;;;22.20;;
6791;SDS011;3433;48.730;9.108;2022-12-18T12:49:11;49.90;;;23.63;;
6791;SDS011;3433;48.730;9.108;2022-12-18T12:52:04;48.60;;;21.97;;
6791;SDS011;3433;48.730;9.108;2022-12-18T12:54:55;43.93;;;20.13;;
6791;SDS011;3433;48.730;9.108;2022-12-18T12:57:45;41.93;;;20.20;;
6791;SDS011;3433;48.730;9.108;2022-12-18T13:00:39;50.80;;;21.00;;
6791;SDS011;3433;48.730;9.108;2022-12-18T13:03:42;42.70;;;20.57;;
6791;SDS011;3433;48.730;9.108;2022-12-18T13:06:39;43.70;;;20.60;;
6791;SDS011;3433;48.730;9.108;2022-12-18T13:09:30;42.43;;;21.47;;
6791;SDS011;3433;48.730;9.108;2022-12-18T13:12:19;43.87;;;20.43;;
6791;SDS011;3433;48.730;9.108;2022-12-18T13:15:25;44.57;;;22.20;;
6791;SDS011;3433;48.730;9.108;2022-12-18T13:18:19;48.90;;;21.90;;
6791;SDS011;3433;48.730;9.108;2022-12-18T13:21:10;41.37;;;19.60;;
6791;SDS011;3433;48.730;9.108;2022-12-18T13:24:14;56.13;;;22.83;;
6791;SDS011;3433;48.730;9.108;2022-12-18T13:33:42;46.90;;;23.47;;
6791;SDS011;3433;48.730;9.108;2022-12-18T13:36:31;59.13;;;23.10;;
6791;SDS011;3433;48.730;9.108;2022-12-18T13:39:23;48.53;;;23.93;;
6791;SDS011;3433;48.730;9.108;2022-12-18T13:42:38;39.93;;;19.73;;
6791;SDS011;3433;48.730;9.108;2022-12-18T13:45:44;49.70;;;22.73;;
6791;SDS011;3433;48.730;9.108;2022-12-18T13:48:36;47.77;;;22.80;;
6791;SDS011;3433;48.730;9.108;2022-12-18T13:51:26;55.97;;;23.67;;
6791;SDS011;3433;48.730;9.108;2022-12-18T13:54:18;45.30;;;23.70;;
6791;SDS011;3433;48.730;9.108;2022-12-18T13:57:23;43.60;;;20.30;;
6791;SDS011;3433;48.730;9.108;2022-12-18T14:00:26;49.50;;;21.00;;
6791;SDS011;3433;48.730;9.108;2022-12-18T14:03:16;46.23;;;20.10;;
6791;SDS011;3433;48.730;9.108;2022-12-18T14:06:07;43.50;;;19.27;;
6791;SDS011;3433;48.730;9.108;2022-12-18T14:08:55;41.60;;;17.17;;
6791;SDS011;3433;48.730;9.108;2022-12-18T14:11:46;42.73;;;18.10;;
6791;SDS011;3433;48.730;9.108;2022-12-18T14:14:34;53.27;;;19.23;;
6791;SDS011;3433;48.730;9.108;2022-12-18T14:17:21;42.17;;;17.10;;
6791;SDS011;3433;48.730;9.108;2022-12-18T14:20:12;39.17;;;16.33;;
6791;SDS011;3433;48.730;9.108;2022-12-18T14:23:02;39.40;;;17.17;;
6791;SDS011;3433;48.730;9.108;2022-12-18T14:25:49;37.87;;;17.57;;
6791;SDS011;3433;48.730;9.108;2022-12-18T14:28:42;44.57;;;20.20;;
6791;SDS011;3433;48.730;9.108;2022-12-18T14:31:30;46.03;;;19.40;;
6791;SDS011;3433;48.730;9.108;2022-12-18T14:34:18;47.53;;;19.60;;
6791;SDS011;3433;48.730;9.108;2022-12-18T14:37:05;48.77;;;21.20;;
6791;SDS011;3433;48.730;9.108;2022-12-18T14:39:58;48.57;;;19.60;;
6791;SDS011;3433;48.730;9.108;2022-12-18T14:42:48;53.50;;;21.67;;
6791;SDS011;3433;48.730;9.108;2022-12-18T14:45:38;42.73;;;20.37;;
6791;SDS011;3433;48.730;9.108;2022-12-18T14:48:35;52.00;;;21.53;;
6791;SDS011;3433;48.730;9.108;2022-12-18T14:51:27;49.73;;;21.97;;
6791;SDS011;3433;48.730;9.108;2022-12-18T14:54:17;49.03;;;20.43;;
6791;SDS011;3433;48.730;9.108;2022-12-18T14:57:14;49.73;;;19.43;;
6791;SDS011;3433;48.730;9.108;2022-12-18T15:00:14;50.83;;;22.60;;
6791;SDS011;3433;48.730;9.108;2022-12-18T15:03:05;44.40;;;19.30;;
6791;SDS011;3433;48.730;9.108;2022-12-18T15:05:55;45.40;;;18.30;;
6791;SDS011;3433;48.730;9.108;2022-12-18T15:08:42;47.63;;;20.07;;
6791;SDS011;3433;48.730;9.108;2022-12-18T15:11:34;55.43;;;21.87;;
6791;SDS011;3433;48.730;9.108;2022-12-18T15:14:37;43.17;;;18.73;;
6791;SDS011;3433;48.730;9.108;2022-12-18T15:17:27;46.90;;;19.80;;
6791;SDS011;3433;48.730;9.108;2022-12-18T15:20:14;35.93;;;17.70;;
6791;SDS011;3433;48.730;9.108;2022-12-18T15:23:01;45.27;;;18.30;;
6791;SDS011;3433;48.730;9.108;2022-12-18T15:25:54;46.30;;;18.70;;
6791;SDS011;3433;48.730;9.108;2022-12-18T15:28:46;51.60;;;19.67;;
6791;SDS011;3433;48.730;9.108;2022-12-18T15:31:36;41.37;;;18.80;;
6791;SDS011;3433;48.730;9.108;2022-12-18T15:34:24;49.60;;;21.80;;
6791;SDS011;3433;48.730;9.108;2022-12-18T15:37:11;84.80;;;34.33;;
6791;SDS011;3433;48.730;9.108;2022-12-18T15:39:58;56.97;;;25.00;;
6791;SDS011;3433;48.730;9.108;2022-12-18T15:42:47;55.87;;;24.00;;
6791;SDS011;3433;48.730;9.108;2022-12-18T15:45:52;54.00;;;23.70;;
6791;SDS011;3433;48.730;9.108;2022-12-18T15:48:42;51.80;;;21.40;;
6791;SDS011;3433;48.730;9.108;2022-12-18T15:51:31;45.87;;;21.30;;
6791;SDS011;3433;48.730;9.108;2022-12-18T15:54:20;44.00;;;21.40;;
6791;SDS011;3433;48.730;9.108;2022-12-18T15:57:27;52.27;;;21.77;;
6791;SDS011;3433;48.730;9.108;2022-12-18T16:00:14;46.93;;;22.00;;
6791;SDS011;3433;48.730;9.108;2022-12-18T16:03:02;52.70;;;23.17;;
6791;SDS011;3433;48.730;9.108;2022-12-18T16:05:51;52.53;;;22.20;;
6791;SDS011;3433;48.730;9.108;2022-12-18T16:08:38;49.90;;;22.67;;
6791;SDS011;3433;48.730;9.108;2022-12-18T16:11:26;53.50;;;21.67;;
6791;SDS011;3433;48.730;9.108;2022-12-18T16:14:27;56.50;;;22.90;;
6791;SDS011;3433;48.730;9.108;2022-12-18T16:17:16;51.30;;;22.30;;
6791;SDS011;3433;48.730;9.108;2022-12-18T16:20:04;47.30;;;20.97;;
6791;SDS011;3433;48.730;9.108;2022-12-18T16:22:53;53.27;;;22.70;;
6791;SDS011;3433;48.730;9.108;2022-12-18T16:25:40;59.23;;;19.90;;
6791;SDS011;3433;48.730;9.108;2022-12-18T16:28:27;54.07;;;21.50;;
6791;SDS011;3433;48.730;9.108;2022-12-18T16:31:14;54.00;;;21.90;;
6791;SDS011;3433;48.730;9.108;2022-12-18T16:34:17;52.57;;;21.53;;
6791;SDS011;3433;48.730;9.108;2022-12-18T16:37:08;59.30;;;22.70;;
6791;SDS011;3433;48.730;9.108;2022-12-18T16:39:57;53.20;;;21.90;;
6791;SDS011;3433;48.730;9.108;2022-12-18T16:42:45;51.47;;;21.10;;
6791;SDS011;3433;48.730;9.108;2022-12-18T16:45:32;55.10;;;22.27;;
6791;SDS011;3433;48.730;9.108;2022-12-18T16:48:19;51.50;;;21.50;;
6791;SDS011;3433;48.730;9.108;2022-12-18T16:51:07;46.10;;;19.93;;
6791;SDS011;3433;48.730;9.108;2022-12-18T16:53:54;57.77;;;22.80;;
6791;SDS011;3433;48.730;9.108;2022-12-18T16:56:43;48.43;;;21.70;;
6791;SDS011;3433;48.730;9.108;2022-12-18T16:59:35;47.37;;;20.40;;
6791;SDS011;3433;48.730;9.108;2022-12-18T17:02:23;48.10;;;19.30;;
6791;SDS011;3433;48.730;9.108;2022-12-18T17:05:11;55.93;;;22.30;;
6791;SDS011;3433;48.730;9.108;2022-12-18T17:07:59;45.60;;;19.57;;
6791;SDS011;3433;48.730;9.108;2022-12-18T17:10:46;51.20;;;20.83;;
6791;SDS011;3433;48.730;9.108;2022-12-18T17:13:34;53.30;;;20.33;;
6791;SDS011;3433;48.730;9.108;2022-12-18T17:16:22;42.57;;;18.13;;